sensor_id;sensor_type;location;lat;lon;timestamp;pressure;altitude;pressure_sealevel;temperature;humidity
28626;BME280;18905;42.668;23.364;2023-02-23T00:02:15;94936.41;;;8.32;100.00
28626;BME280;18905;42.668;23.364;2023-02-23T00:04:41;94937.31;;;8.27;100.00
28626;BME280;18905;42.668;23.364;2023-02-23T00:07:06;94941.91;;;8.27;98.89
28626;BME280;18905;42.668;23.364;2023-02-23T00:09:34;94944.91;;;8.25;98.39
28626;BME280;18905;42.668;23.364;2023-02-23T00:12:03;94947.13;;;8.23;98.19
28626;BME280;18905;42.668;23.364;2023-02-23T00:14:47;94946.69;;;8.16;97.19
28626;BME280;18905;42.668;23.364;2023-02-23T00:17:14;94946.31;;;8.09;97.49
28626;BME280;18905;42.668;23.364;2023-02-23T00:19:41;94949.56;;;7.98;97.70
28626;BME280;18905;42.668;23.364;2023-02-23T00:22:11;94946.22;;;7.92;98.42
28626;BME280;18905;42.668;23.364;2023-02-23T00:24:39;94954.19;;;7.84;98.69
28626;BME280;18905;42.668;23.364;2023-02-23T00:27:14;94950.22;;;7.81;98.95
28626;BME280;18905;42.668;23.364;2023-02-23T00:29:45;94958.22;;;7.73;99.87
28626;BME280;18905;42.668;23.364;2023-02-23T00:32:13;94952.66;;;7.69;99.95
28626;BME280;18905;42.668;23.364;2023-02-23T00:34:49;94953.53;;;7.65;100.00
28626;BME280;18905;42.668;23.364;2023-02-23T00:37:17;94954.06;;;7.67;100.00
28626;BME280;18905;42.668;23.364;2023-02-23T00:39:47;94951.06;;;7.68;100.00
28626;BME280;18905;42.668;23.364;2023-02-23T00:42:17;94959.91;;;7.69;100.00
28626;BME280;18905;42.668;23.364;2023-02-23T00:44:43;94954.41;;;7.74;100.00
28626;BME280;18905;42.668;23.364;2023-02-23T00:47:11;94958.38;;;7.76;100.00
28626;BME280;18905;42.668;23.364;2023-02-23T00:49:37;94949.44;;;7.81;100.00
28626;BME280;18905;42.668;23.364;2023-02-23T00:52:09;94948.22;;;7.87;100.00
28626;BME280;18905;42.668;23.364;2023-02-23T00:54:34;94952.78;;;7.86;100.00
28626;BME280;18905;42.668;23.364;2023-02-23T00:57:03;94943.53;;;7.92;100.00
28626;BME280;18905;42.668;23.364;2023-02-23T00:59:28;94951.25;;;7.72;100.00
28626;BME280;18905;42.668;23.364;2023-02-23T01:01:54;94947.03;;;7.79;100.00
28626;BME280;18905;42.668;23.364;2023-02-23T01:04:20;94946.09;;;7.62;100.00
28626;BME280;18905;42.668;23.364;2023-02-23T01:06:47;94947.00;;;7.57;100.00
28626;BME280;18905;42.668;23.364;2023-02-23T01:09:14;94945.13;;;7.58;100.00
28626;BME280;18905;42.668;23.364;2023-02-23T01:11:45;94949.66;;;7.71;100.00
28626;BME280;18905;42.668;23.364;2023-02-23T01:14:11;94945.16;;;7.80;100.00
28626;BME280;18905;42.668;23.364;2023-02-23T01:16:37;94941.44;;;7.89;100.00
28626;BME280;18905;42.668;23.364;2023-02-23T01:19:05;94937.22;;;7.97;100.00
28626;BME280;18905;42.668;23.364;2023-02-23T01:21:33;94938.38;;;8.04;100.00
28626;BME280;18905;42.668;23.364;2023-02-23T01:24:01;94937.19;;;8.10;99.46
28626;BME280;18905;42.668;23.364;2023-02-23T01:26:28;94938.94;;;8.15;98.40
28626;BME280;18905;42.668;23.364;2023-02-23T01:28:55;94935.34;;;8.19;98.06
28626;BME280;18905;42.668;23.364;2023-02-23T01:31:22;94937.22;;;8.19;98.04
28626;BME280;18905;42.668;23.364;2023-02-23T01:33:58;94944.72;;;8.22;97.40
28626;BME280;18905;42.668;23.364;2023-02-23T01:36:24;94942.25;;;8.12;98.23
28626;BME280;18905;42.668;23.364;2023-02-23T01:38:50;94937.13;;;8.24;97.67
28626;BME280;18905;42.668;23.364;2023-02-23T01:41:19;94940.53;;;8.16;97.89
28626;BME280;18905;42.668;23.364;2023-02-23T01:43:58;94939.91;;;8.19;97.32
28626;BME280;18905;42.668;23.364;2023-02-23T01:46:24;94932.44;;;8.16;97.95
28626;BME280;18905;42.668;23.364;2023-02-23T01:48:49;94934.63;;;8.05;98.73
28626;BME280;18905;42.668;23.364;2023-02-23T01:51:17;94933.00;;;8.04;98.65
28626;BME280;18905;42.668;23.364;2023-02-23T01:53:49;94934.41;;;8.02;98.93
28626;BME280;18905;42.668;23.364;2023-02-23T01:56:21;94934.22;;;7.98;99.53
28626;BME280;18905;42.668;23.364;2023-02-23T01:58:48;94927.09;;;7.94;100.00
28626;BME280;18905;42.668;23.364;2023-02-23T02:01:16;94931.66;;;7.93;100.00
28626;BME280;18905;42.668;23.364;2023-02-23T02:03:50;94934.06;;;7.95;100.00
28626;BME280;18905;42.668;23.364;2023-02-23T02:06:18;94930.84;;;7.93;100.00
28626;BME280;18905;42.668;23.364;2023-02-23T02:08:47;94928.09;;;7.84;100.00
28626;BME280;18905;42.668;23.364;2023-02-23T02:11:18;94930.31;;;7.82;100.00
28626;BME280;18905;42.668;23.364;2023-02-23T02:13:58;94932.84;;;7.65;100.00
28626;BME280;18905;42.668;23.364;2023-02-23T02:32:30;94936.03;;;6.32;100.00
28626;BME280;18905;42.668;23.364;2023-02-23T02:40:30;94945.53;;;5.93;100.00
28626;BME280;18905;42.668;23.364;2023-02-23T02:48:21;94933.13;;;6.29;100.00
28626;BME280;18905;42.668;23.364;2023-02-23T02:50:54;94930.16;;;6.30;100.00
28626;BME280;18905;42.668;23.364;2023-02-23T02:53:27;94929.19;;;6.40;100.00
28626;BME280;18905;42.668;23.364;2023-02-23T02:55:55;94926.44;;;6.45;100.00
28626;BME280;18905;42.668;23.364;2023-02-23T02:58:43;94926.41;;;6.31;100.00
28626;BME280;18905;42.668;23.364;2023-02-23T03:01:12;94927.09;;;6.37;100.00
28626;BME280;18905;42.668;23.364;2023-02-23T03:03:57;94925.13;;;6.42;100.00
28626;BME280;18905;42.668;23.364;2023-02-23T03:06:49;94925.94;;;6.43;100.00
28626;BME280;18905;42.668;23.364;2023-02-23T03:18:06;94939.50;;;6.01;100.00
28626;BME280;18905;42.668;23.364;2023-02-23T03:20:58;94941.31;;;6.05;100.00
28626;BME280;18905;42.668;23.364;2023-02-23T03:23:55;94945.28;;;6.08;100.00
28626;BME280;18905;42.668;23.364;2023-02-23T03:26:51;94939.66;;;6.09;100.00
28626;BME280;18905;42.668;23.364;2023-02-23T03:29:39;94948.00;;;6.21;100.00
28626;BME280;18905;42.668;23.364;2023-02-23T03:32:33;94939.84;;;6.13;100.00
28626;BME280;18905;42.668;23.364;2023-02-23T03:35:26;94945.47;;;6.30;100.00
28626;BME280;18905;42.668;23.364;2023-02-23T03:38:19;94944.88;;;6.33;100.00
28626;BME280;18905;42.668;23.364;2023-02-23T03:41:05;94949.28;;;6.42;100.00
28626;BME280;18905;42.668;23.364;2023-02-23T03:43:52;94944.19;;;6.41;100.00
28626;BME280;18905;42.668;23.364;2023-02-23T03:46:38;94948.06;;;6.48;100.00
28626;BME280;18905;42.668;23.364;2023-02-23T03:49:24;94955.00;;;6.36;100.00
28626;BME280;18905;42.668;23.364;2023-02-23T03:52:13;94957.34;;;6.24;100.00
28626;BME280;18905;42.668;23.364;2023-02-23T03:55:00;94961.31;;;6.26;100.00
28626;BME280;18905;42.668;23.364;2023-02-23T03:57:46;94959.44;;;6.27;100.00
28626;BME280;18905;42.668;23.364;2023-02-23T04:00:33;94966.91;;;6.30;100.00
28626;BME280;18905;42.668;23.364;2023-02-23T04:03:19;94966.13;;;6.29;100.00
28626;BME280;18905;42.668;23.364;2023-02-23T04:06:05;94967.22;;;6.28;100.00
28626;BME280;18905;42.668;23.364;2023-02-23T04:08:50;94962.31;;;6.17;100.00
28626;BME280;18905;42.668;23.364;2023-02-23T04:14:30;94972.09;;;5.71;100.00
28626;BME280;18905;42.668;23.364;2023-02-23T04:16:58;94977.44;;;5.34;100.00
28626;BME280;18905;42.668;23.364;2023-02-23T04:19:27;94972.56;;;5.17;100.00
28626;BME280;18905;42.668;23.364;2023-02-23T04:21:52;94972.78;;;5.21;100.00
28626;BME280;18905;42.668;23.364;2023-02-23T04:24:19;94978.63;;;5.23;100.00
28626;BME280;18905;42.668;23.364;2023-02-23T04:26:45;94967.09;;;5.04;100.00
28626;BME280;18905;42.668;23.364;2023-02-23T04:29:10;94975.44;;;4.97;100.00
28626;BME280;18905;42.668;23.364;2023-02-23T04:31:36;94972.31;;;4.67;100.00
28626;BME280;18905;42.668;23.364;2023-02-23T04:34:01;94975.69;;;4.77;100.00
28626;BME280;18905;42.668;23.364;2023-02-23T04:36:28;94976.31;;;4.93;100.00
28626;BME280;18905;42.668;23.364;2023-02-23T04:38:54;94982.28;;;5.08;100.00
28626;BME280;18905;42.668;23.364;2023-02-23T04:41:19;94978.41;;;5.19;100.00
28626;BME280;18905;42.668;23.364;2023-02-23T04:43:44;94979.56;;;5.32;100.00
28626;BME280;18905;42.668;23.364;2023-02-23T04:46:10;94976.19;;;5.45;100.00
28626;BME280;18905;42.668;23.364;2023-02-23T04:48:35;94969.41;;;5.52;100.00
28626;BME280;18905;42.668;23.364;2023-02-23T04:51:00;94969.84;;;5.59;100.00
28626;BME280;18905;42.668;23.364;2023-02-23T04:53:25;94972.16;;;5.66;100.00
28626;BME280;18905;42.668;23.364;2023-02-23T04:55:51;94975.78;;;5.75;100.00
28626;BME280;18905;42.668;23.364;2023-02-23T04:58:16;94977.06;;;5.82;100.00
28626;BME280;18905;42.668;23.364;2023-02-23T05:00:41;94983.44;;;5.86;100.00
28626;BME280;18905;42.668;23.364;2023-02-23T05:03:07;94970.38;;;5.98;100.00
28626;BME280;18905;42.668;23.364;2023-02-23T05:05:32;94973.53;;;6.19;100.00
28626;BME280;18905;42.668;23.364;2023-02-23T05:07:58;94975.63;;;6.22;100.00
28626;BME280;18905;42.668;23.364;2023-02-23T05:10:23;94980.22;;;6.80;100.00
28626;BME280;18905;42.668;23.364;2023-02-23T05:12:50;94979.06;;;7.54;100.00
28626;BME280;18905;42.668;23.364;2023-02-23T05:15:20;94973.72;;;8.11;100.00
28626;BME280;18905;42.668;23.364;2023-02-23T05:17:59;94973.50;;;8.65;100.00
28626;BME280;18905;42.668;23.364;2023-02-23T05:20:52;94978.31;;;7.75;100.00
28626;BME280;18905;42.668;23.364;2023-02-23T05:23:18;94977.09;;;7.32;100.00
28626;BME280;18905;42.668;23.364;2023-02-23T05:25:45;94986.13;;;6.96;100.00
28626;BME280;18905;42.668;23.364;2023-02-23T05:28:11;94983.44;;;6.82;100.00
28626;BME280;18905;42.668;23.364;2023-02-23T05:30:39;94983.53;;;6.77;100.00
28626;BME280;18905;42.668;23.364;2023-02-23T05:33:05;94981.44;;;6.74;100.00
28626;BME280;18905;42.668;23.364;2023-02-23T05:35:31;94991.97;;;6.71;100.00
28626;BME280;18905;42.668;23.364;2023-02-23T05:37:57;94984.78;;;6.66;100.00
28626;BME280;18905;42.668;23.364;2023-02-23T05:40:22;94989.94;;;6.63;100.00
28626;BME280;18905;42.668;23.364;2023-02-23T05:42:47;94990.97;;;6.67;100.00
28626;BME280;18905;42.668;23.364;2023-02-23T05:45:12;95000.25;;;6.56;100.00
28626;BME280;18905;42.668;23.364;2023-02-23T05:47:38;95006.13;;;6.58;100.00
28626;BME280;18905;42.668;23.364;2023-02-23T05:50:04;95009.72;;;6.67;100.00
28626;BME280;18905;42.668;23.364;2023-02-23T05:52:30;95007.53;;;6.69;100.00
28626;BME280;18905;42.668;23.364;2023-02-23T05:54:56;95012.22;;;6.63;100.00
28626;BME280;18905;42.668;23.364;2023-02-23T05:57:21;95014.59;;;6.65;100.00
28626;BME280;18905;42.668;23.364;2023-02-23T05:59:46;95011.75;;;6.75;100.00
28626;BME280;18905;42.668;23.364;2023-02-23T06:02:12;95016.03;;;6.89;100.00
28626;BME280;18905;42.668;23.364;2023-02-23T06:04:37;95019.34;;;7.00;100.00
28626;BME280;18905;42.668;23.364;2023-02-23T06:07:03;95013.97;;;6.86;100.00
28626;BME280;18905;42.668;23.364;2023-02-23T06:09:28;95024.41;;;6.56;100.00
28626;BME280;18905;42.668;23.364;2023-02-23T06:11:53;95028.69;;;6.25;100.00
28626;BME280;18905;42.668;23.364;2023-02-23T06:14:19;95032.94;;;6.26;100.00
28626;BME280;18905;42.668;23.364;2023-02-23T06:16:47;95034.91;;;5.83;100.00
28626;BME280;18905;42.668;23.364;2023-02-23T06:19:13;95032.88;;;5.94;100.00
28626;BME280;18905;42.668;23.364;2023-02-23T06:21:39;95033.81;;;5.84;100.00
28626;BME280;18905;42.668;23.364;2023-02-23T06:24:05;95042.16;;;6.20;100.00
28626;BME280;18905;42.668;23.364;2023-02-23T06:26:30;95036.59;;;8.02;100.00
28626;BME280;18905;42.668;23.364;2023-02-23T06:28:56;95038.38;;;10.03;100.00
28626;BME280;18905;42.668;23.364;2023-02-23T06:31:21;95035.22;;;11.03;86.45
28626;BME280;18905;42.668;23.364;2023-02-23T06:33:47;95039.44;;;12.05;70.63
28626;BME280;18905;42.668;23.364;2023-02-23T06:36:12;95042.72;;;12.60;65.76
28626;BME280;18905;42.668;23.364;2023-02-23T06:38:39;95041.88;;;12.68;64.40
28626;BME280;18905;42.668;23.364;2023-02-23T06:41:08;95041.59;;;12.61;62.35
28626;BME280;18905;42.668;23.364;2023-02-23T06:43:33;95042.44;;;11.82;65.60
28626;BME280;18905;42.668;23.364;2023-02-23T06:45:59;95049.34;;;11.08;72.94
28626;BME280;18905;42.668;23.364;2023-02-23T06:48:24;95038.88;;;10.98;71.86
28626;BME280;18905;42.668;23.364;2023-02-23T06:50:49;95042.75;;;11.35;69.81
28626;BME280;18905;42.668;23.364;2023-02-23T06:53:14;95048.50;;;12.09;66.16
28626;BME280;18905;42.668;23.364;2023-02-23T06:55:40;95050.13;;;12.51;62.71
28626;BME280;18905;42.668;23.364;2023-02-23T06:58:05;95055.47;;;12.59;61.05
28626;BME280;18905;42.668;23.364;2023-02-23T07:00:31;95049.66;;;12.28;61.18
28626;BME280;18905;42.668;23.364;2023-02-23T07:02:57;95046.81;;;11.58;66.22
28626;BME280;18905;42.668;23.364;2023-02-23T07:05:23;95045.47;;;11.81;65.48
28626;BME280;18905;42.668;23.364;2023-02-23T07:07:49;95056.38;;;11.64;66.16
28626;BME280;18905;42.668;23.364;2023-02-23T07:10:14;95048.19;;;11.18;67.59
28626;BME280;18905;42.668;23.364;2023-02-23T07:12:39;95061.59;;;10.12;73.24
28626;BME280;18905;42.668;23.364;2023-02-23T07:15:04;95048.47;;;10.70;75.77
28626;BME280;18905;42.668;23.364;2023-02-23T07:17:30;95044.63;;;11.43;69.88
28626;BME280;18905;42.668;23.364;2023-02-23T07:19:55;95050.91;;;12.02;66.74
28626;BME280;18905;42.668;23.364;2023-02-23T07:22:21;95055.44;;;11.89;65.53
28626;BME280;18905;42.668;23.364;2023-02-23T07:24:48;95053.06;;;12.17;65.92
28626;BME280;18905;42.668;23.364;2023-02-23T07:27:14;95044.84;;;12.54;63.40
28626;BME280;18905;42.668;23.364;2023-02-23T07:29:39;95054.41;;;12.72;61.31
28626;BME280;18905;42.668;23.364;2023-02-23T07:32:04;95045.66;;;12.87;61.84
28626;BME280;18905;42.668;23.364;2023-02-23T07:34:30;95046.56;;;12.79;61.94
28626;BME280;18905;42.668;23.364;2023-02-23T07:36:55;95048.34;;;12.55;63.33
28626;BME280;18905;42.668;23.364;2023-02-23T07:39:20;95035.88;;;13.15;60.95
28626;BME280;18905;42.668;23.364;2023-02-23T07:41:45;95043.53;;;13.13;60.60
28626;BME280;18905;42.668;23.364;2023-02-23T07:44:11;95037.31;;;13.45;58.91
28626;BME280;18905;42.668;23.364;2023-02-23T07:46:36;95044.09;;;13.51;58.93
28626;BME280;18905;42.668;23.364;2023-02-23T07:49:02;95042.09;;;13.96;58.71
28626;BME280;18905;42.668;23.364;2023-02-23T07:51:28;95039.00;;;14.58;56.15
28626;BME280;18905;42.668;23.364;2023-02-23T07:53:53;95031.69;;;14.34;55.72
28626;BME280;18905;42.668;23.364;2023-02-23T07:56:19;95040.84;;;14.06;56.46
28626;BME280;18905;42.668;23.364;2023-02-23T07:58:44;95026.06;;;13.79;56.83
28626;BME280;18905;42.668;23.364;2023-02-23T08:01:10;95025.03;;;13.96;57.92
28626;BME280;18905;42.668;23.364;2023-02-23T08:03:36;95032.16;;;13.88;57.95
28626;BME280;18905;42.668;23.364;2023-02-23T08:06:01;95032.16;;;13.76;58.25
28626;BME280;18905;42.668;23.364;2023-02-23T08:08:27;95036.88;;;13.11;61.15
28626;BME280;18905;42.668;23.364;2023-02-23T08:10:59;95029.28;;;13.49;60.18
28626;BME280;18905;42.668;23.364;2023-02-23T08:13:24;95033.28;;;14.23;57.13
28626;BME280;18905;42.668;23.364;2023-02-23T08:15:49;95030.06;;;13.49;57.58
28626;BME280;18905;42.668;23.364;2023-02-23T08:18:15;95022.53;;;14.27;57.34
28626;BME280;18905;42.668;23.364;2023-02-23T08:20:40;95021.44;;;14.95;54.70
28626;BME280;18905;42.668;23.364;2023-02-23T08:23:05;95018.25;;;15.20;54.29
28626;BME280;18905;42.668;23.364;2023-02-23T08:25:30;95016.41;;;15.36;54.39
28626;BME280;18905;42.668;23.364;2023-02-23T08:27:56;95023.63;;;15.91;52.67
28626;BME280;18905;42.668;23.364;2023-02-23T08:30:23;95026.66;;;16.20;51.53
28626;BME280;18905;42.668;23.364;2023-02-23T08:32:49;95028.19;;;16.37;50.36
28626;BME280;18905;42.668;23.364;2023-02-23T08:35:15;95027.00;;;16.19;50.68
28626;BME280;18905;42.668;23.364;2023-02-23T08:37:41;95027.94;;;15.76;51.03
28626;BME280;18905;42.668;23.364;2023-02-23T08:40:06;95026.25;;;16.18;51.02
28626;BME280;18905;42.668;23.364;2023-02-23T08:42:32;95024.75;;;16.05;50.90
28626;BME280;18905;42.668;23.364;2023-02-23T08:44:57;95020.91;;;16.56;50.24
28626;BME280;18905;42.668;23.364;2023-02-23T08:47:25;95025.34;;;15.52;51.09
28626;BME280;18905;42.668;23.364;2023-02-23T08:49:50;95015.19;;;15.65;52.01
28626;BME280;18905;42.668;23.364;2023-02-23T08:52:18;95025.00;;;16.16;50.64
28626;BME280;18905;42.668;23.364;2023-02-23T08:54:43;95018.09;;;15.72;51.43
28626;BME280;18905;42.668;23.364;2023-02-23T08:57:08;95025.81;;;15.85;51.05
28626;BME280;18905;42.668;23.364;2023-02-23T08:59:34;95015.28;;;15.68;51.73
28626;BME280;18905;42.668;23.364;2023-02-23T09:01:59;95014.22;;;15.42;52.60
28626;BME280;18905;42.668;23.364;2023-02-23T09:04:24;95020.94;;;14.14;55.77
28626;BME280;18905;42.668;23.364;2023-02-23T09:06:50;95011.25;;;14.92;54.63
28626;BME280;18905;42.668;23.364;2023-02-23T09:09:15;95019.53;;;15.38;52.99
28626;BME280;18905;42.668;23.364;2023-02-23T09:11:41;95013.44;;;15.72;52.61
28626;BME280;18905;42.668;23.364;2023-02-23T09:14:06;95014.56;;;15.87;51.65
28626;BME280;18905;42.668;23.364;2023-02-23T09:16:32;95015.88;;;16.08;51.58
28626;BME280;18905;42.668;23.364;2023-02-23T09:18:59;95013.97;;;16.78;49.85
28626;BME280;18905;42.668;23.364;2023-02-23T09:21:25;95003.44;;;16.76;48.93
28626;BME280;18905;42.668;23.364;2023-02-23T09:23:52;95008.44;;;17.12;48.81
28626;BME280;18905;42.668;23.364;2023-02-23T09:26:20;95005.50;;;17.40;48.18
28626;BME280;18905;42.668;23.364;2023-02-23T09:28:45;95009.50;;;17.91;47.19
28626;BME280;18905;42.668;23.364;2023-02-23T09:31:12;95006.69;;;17.42;46.81
28626;BME280;18905;42.668;23.364;2023-02-23T09:33:37;95007.69;;;17.34;47.25
28626;BME280;18905;42.668;23.364;2023-02-23T09:36:04;95021.56;;;17.67;46.59
28626;BME280;18905;42.668;23.364;2023-02-23T09:38:29;95013.03;;;17.69;46.93
28626;BME280;18905;42.668;23.364;2023-02-23T09:40:55;95015.09;;;16.77;47.83
28626;BME280;18905;42.668;23.364;2023-02-23T09:49:08;95010.31;;;18.17;45.90
28626;BME280;18905;42.668;23.364;2023-02-23T09:51:37;95006.75;;;18.62;44.67
28626;BME280;18905;42.668;23.364;2023-02-23T09:54:04;95008.69;;;18.91;43.54
28626;BME280;18905;42.668;23.364;2023-02-23T09:56:35;95004.94;;;18.47;44.76
28626;BME280;18905;42.668;23.364;2023-02-23T09:59:01;95010.50;;;18.28;45.28
28626;BME280;18905;42.668;23.364;2023-02-23T10:09:23;94996.72;;;18.73;43.50
28626;BME280;18905;42.668;23.364;2023-02-23T10:11:53;94993.84;;;17.65;45.10
28626;BME280;18905;42.668;23.364;2023-02-23T10:19:36;94985.31;;;17.06;46.65
28626;BME280;18905;42.668;23.364;2023-02-23T10:22:08;94988.56;;;15.89;48.25
28626;BME280;18905;42.668;23.364;2023-02-23T10:24:36;94978.94;;;16.26;48.48
28626;BME280;18905;42.668;23.364;2023-02-23T10:27:06;94983.59;;;16.60;47.69
28626;BME280;18905;42.668;23.364;2023-02-23T10:29:36;94974.28;;;16.99;46.88
28626;BME280;18905;42.668;23.364;2023-02-23T10:32:49;94973.59;;;17.25;46.55
28626;BME280;18905;42.668;23.364;2023-02-23T10:34:53;94966.59;;;17.69;46.26
28626;BME280;18905;42.668;23.364;2023-02-23T10:37:20;94959.34;;;18.28;45.44
28626;BME280;18905;42.668;23.364;2023-02-23T10:39:46;94957.91;;;18.34;44.67
28626;BME280;18905;42.668;23.364;2023-02-23T10:42:15;94963.47;;;18.15;44.58
28626;BME280;18905;42.668;23.364;2023-02-23T10:44:42;94959.75;;;17.78;45.77
28626;BME280;18905;42.668;23.364;2023-02-23T10:47:15;94960.28;;;18.13;44.69
28626;BME280;18905;42.668;23.364;2023-02-23T10:49:44;94950.34;;;17.76;44.95
28626;BME280;18905;42.668;23.364;2023-02-23T10:52:25;94946.91;;;17.56;45.78
28626;BME280;18905;42.668;23.364;2023-02-23T10:54:52;94951.63;;;18.34;44.56
28626;BME280;18905;42.668;23.364;2023-02-23T11:02:44;94938.09;;;17.44;45.52
28626;BME280;18905;42.668;23.364;2023-02-23T11:05:30;94939.69;;;17.93;44.79
28626;BME280;18905;42.668;23.364;2023-02-23T11:10:40;94916.44;;;18.58;44.13
28626;BME280;18905;42.668;23.364;2023-02-23T11:13:07;94917.78;;;18.71;44.13
28626;BME280;18905;42.668;23.364;2023-02-23T11:15:44;94922.13;;;19.09;44.00
28626;BME280;18905;42.668;23.364;2023-02-23T11:18:20;94915.94;;;19.15;43.13
28626;BME280;18905;42.668;23.364;2023-02-23T11:20:47;94914.66;;;19.09;43.80
28626;BME280;18905;42.668;23.364;2023-02-23T11:23:19;94912.69;;;19.03;43.28
28626;BME280;18905;42.668;23.364;2023-02-23T11:25:46;94906.00;;;19.00;43.25
28626;BME280;18905;42.668;23.364;2023-02-23T11:28:18;94903.56;;;18.92;43.04
28626;BME280;18905;42.668;23.364;2023-02-23T11:30:46;94903.06;;;18.50;43.14
28626;BME280;18905;42.668;23.364;2023-02-23T11:33:20;94905.97;;;18.08;43.89
28626;BME280;18905;42.668;23.364;2023-02-23T11:35:51;94895.22;;;18.22;43.80
28626;BME280;18905;42.668;23.364;2023-02-23T11:38:26;94893.63;;;17.92;44.35
28626;BME280;18905;42.668;23.364;2023-02-23T11:41:02;94901.97;;;18.02;44.37
28626;BME280;18905;42.668;23.364;2023-02-23T11:43:28;94897.78;;;18.34;43.78
28626;BME280;18905;42.668;23.364;2023-02-23T11:45:58;94891.91;;;18.98;43.18
28626;BME280;18905;42.668;23.364;2023-02-23T11:50:49;94893.63;;;18.77;42.81
28626;BME280;18905;42.668;23.364;2023-02-23T11:53:17;94887.78;;;18.78;42.86
28626;BME280;18905;42.668;23.364;2023-02-23T11:55:45;94883.22;;;18.56;43.03
28626;BME280;18905;42.668;23.364;2023-02-23T11:58:22;94886.50;;;18.72;43.30
28626;BME280;18905;42.668;23.364;2023-02-23T12:03:20;94874.63;;;19.27;41.87
28626;BME280;18905;42.668;23.364;2023-02-23T12:05:51;94877.03;;;19.32;42.42
28626;BME280;18905;42.668;23.364;2023-02-23T12:08:19;94880.47;;;18.89;43.00
28626;BME280;18905;42.668;23.364;2023-02-23T12:10:54;94879.44;;;18.68;43.42
28626;BME280;18905;42.668;23.364;2023-02-23T12:13:26;94876.25;;;18.62;43.60
28626;BME280;18905;42.668;23.364;2023-02-23T12:16:41;94876.03;;;18.78;43.23
28626;BME280;18905;42.668;23.364;2023-02-23T12:18:48;94870.38;;;19.33;42.49
28626;BME280;18905;42.668;23.364;2023-02-23T12:21:32;94870.97;;;19.56;42.61
28626;BME280;18905;42.668;23.364;2023-02-23T12:24:13;94865.81;;;20.02;41.39
28626;BME280;18905;42.668;23.364;2023-02-23T12:26:44;94859.94;;;19.49;42.05
28626;BME280;18905;42.668;23.364;2023-02-23T12:31:54;94864.03;;;18.89;43.01
28626;BME280;18905;42.668;23.364;2023-02-23T12:34:23;94863.06;;;18.12;44.51
28626;BME280;18905;42.668;23.364;2023-02-23T12:36:58;94861.84;;;17.80;45.17
28626;BME280;18905;42.668;23.364;2023-02-23T12:39:32;94869.59;;;17.75;45.00
28626;BME280;18905;42.668;23.364;2023-02-23T12:44:37;94858.69;;;18.04;44.93
28626;BME280;18905;42.668;23.364;2023-02-23T12:47:26;94861.00;;;18.02;45.29
28626;BME280;18905;42.668;23.364;2023-02-23T12:50:02;94853.22;;;18.34;44.54
28626;BME280;18905;42.668;23.364;2023-02-23T12:52:32;94855.00;;;18.19;44.61
28626;BME280;18905;42.668;23.364;2023-02-23T12:54:58;94853.00;;;17.90;45.25
28626;BME280;18905;42.668;23.364;2023-02-23T12:57:36;94862.38;;;17.89;45.44
28626;BME280;18905;42.668;23.364;2023-02-23T13:06:10;94849.03;;;17.84;45.50
28626;BME280;18905;42.668;23.364;2023-02-23T13:11:13;94839.44;;;18.23;44.55
28626;BME280;18905;42.668;23.364;2023-02-23T13:16:17;94852.09;;;18.35;44.28
28626;BME280;18905;42.668;23.364;2023-02-23T13:21:35;94856.06;;;17.85;45.42
28626;BME280;18905;42.668;23.364;2023-02-23T13:24:06;94846.75;;;17.86;44.74
28626;BME280;18905;42.668;23.364;2023-02-23T13:26:41;94846.22;;;17.77;45.45
28626;BME280;18905;42.668;23.364;2023-02-23T13:31:55;94839.28;;;18.13;44.98
28626;BME280;18905;42.668;23.364;2023-02-23T13:37:17;94842.78;;;18.13;44.64
28626;BME280;18905;42.668;23.364;2023-02-23T13:44:52;94832.75;;;18.21;44.35
28626;BME280;18905;42.668;23.364;2023-02-23T13:50:15;94837.97;;;18.62;43.94
28626;BME280;18905;42.668;23.364;2023-02-23T13:52:43;94837.72;;;18.74;43.75
28626;BME280;18905;42.668;23.364;2023-02-23T13:58:02;94839.53;;;18.63;43.92
28626;BME280;18905;42.668;23.364;2023-02-23T14:00:28;94845.50;;;18.39;43.26
28626;BME280;18905;42.668;23.364;2023-02-23T14:02:54;94841.41;;;18.26;43.16
28626;BME280;18905;42.668;23.364;2023-02-23T14:05:23;94844.53;;;18.25;43.28
28626;BME280;18905;42.668;23.364;2023-02-23T14:08:07;94841.41;;;17.97;43.86
28626;BME280;18905;42.668;23.364;2023-02-23T14:10:36;94845.34;;;17.99;43.31
28626;BME280;18905;42.668;23.364;2023-02-23T14:13:04;94843.00;;;17.72;43.77
28626;BME280;18905;42.668;23.364;2023-02-23T14:20:43;94829.75;;;17.25;47.35
28626;BME280;18905;42.668;23.364;2023-02-23T14:30:48;94833.97;;;16.55;50.18
28626;BME280;18905;42.668;23.364;2023-02-23T14:35:59;94844.06;;;16.36;51.50
28626;BME280;18905;42.668;23.364;2023-02-23T14:38:33;94856.28;;;16.42;51.30
28626;BME280;18905;42.668;23.364;2023-02-23T14:41:01;94853.34;;;16.50;51.58
28626;BME280;18905;42.668;23.364;2023-02-23T14:45:55;94856.31;;;16.83;50.73
28626;BME280;18905;42.668;23.364;2023-02-23T14:48:21;94850.44;;;16.81;51.01
28626;BME280;18905;42.668;23.364;2023-02-23T16:19:40;94966.94;;;12.72;94.88
28626;BME280;18905;42.668;23.364;2023-02-23T16:22:10;94973.13;;;12.72;83.12
28626;BME280;18905;42.668;23.364;2023-02-23T16:24:40;94974.41;;;12.54;84.63
28626;BME280;18905;42.668;23.364;2023-02-23T16:27:06;94969.69;;;12.51;85.37
28626;BME280;18905;42.668;23.364;2023-02-23T16:29:32;94985.00;;;12.47;85.67
28626;BME280;18905;42.668;23.364;2023-02-23T16:32:02;94994.50;;;12.33;87.41
28626;BME280;18905;42.668;23.364;2023-02-23T16:34:34;94985.34;;;12.25;88.15
28626;BME280;18905;42.668;23.364;2023-02-23T16:37:14;94990.09;;;12.28;89.58